North Adams, MA (01247)

3:37 PM EDT on August 04, 2015 (GMT -0400)
Florida Mountain | | Change Station
CLOSE
Current Station
Personal Weather Station
Location: Florida, MA
Elevation: 1975 ft
Nearby Weather Stations

Elev 1975 ft 42.70 °N, 73.05 °W | Updated 5 minutes ago

Partly Cloudy
Partly Cloudy
75.0 °F
Feels Like 77 °F
N
4.7
Wind Variable Wind from WNW

Today
High -- | Low -- °F
--% Chance of Precip.
Yesterday
High -- | Low -- °F
Precip. -- in
5:46 AM 8:09 PM
Waning Gibbous, 75% visible
Pressure 29.84 in
Visibility 10.0 miles
Clouds Few 8000 ft
Scattered Clouds 9500 ft
Heat Index 77 °F
Dew Point 63 °F
Humidity 66%
Rainfall 0.10 in
Snow Depth Not available.
UV 6 out of 12
Pollen 7.40 out of 12
Air Quality Not available.
Flu Activity Not available.
SPECI KAQW 041925Z AUTO 23006KT 10SM FEW080 SCT095 24/18 A2984 RMK AO2 RAE1855 P0000 T02440178

More Conditions Fewer Conditions

Pressure 29.84 in
Visibility 10.0 miles
Clouds Few 8000 ft
Scattered Clouds 9500 ft
Heat Index 77 °F
Dew Point 63 °F
Humidity 66%
Rainfall 0.10 in
Snow Depth Not available.
UV 6 out of 12
Pollen 7.40 out of 12
Air Quality Not available.
Flu Activity Not available.
SPECI KAQW 041925Z AUTO 23006KT 10SM FEW080 SCT095 24/18 A2984 RMK AO2 RAE1855 P0000 T02440178

More Conditions Fewer Conditions

10-Day Weather Forecast

×

Almanac

Astronomy

Aug. 04, 2015 Rise Set
Actual Time
Civil Twilight
Nautical Twilight
Astronomical Twilight
Moon
Length of Visible Light
Length of Day
Tomorrow will be .
, % of the Moon is Illuminated

Today's Extremes

State Highs State Lows

Community

WunderPhotos

Upload Photos

1,843,954 photos uploaded!

WunderBlogs® & News

Nearby

Air Quality

  Air Quality AQ Index Pollutant
Not available.

Snow Depth

Station Depth Elevation

Earthquake Activity

City Distance Mag. Time & Date
Minimum magnitude displayed is 2.5.

Coastal Water Temperatures

Place Temperature

Stations

Nearby Weather Stations

Station Location Temp. Windchill Dew Point Humidity Wind Precip. Elev Updated Type
                   
Severe Thunderstorm Warning
Statement as of 1:46 PM EDT on August 04, 2015

... The Severe Thunderstorm Warning for northeastern Berkshire County
is cancelled...

the storm which prompted the warning has moved out of the area.
Therefore the warning has been cancelled.

A Severe Thunderstorm Watch remains in effect until 800 PM EDT for
western Massachusetts.

Lat... Lon 4255 7298 4253 7297 4238 7301 4239 7306
      4236 7307 4237 7324 4259 7319 4259 7297
time... Mot... loc 1744z 267deg 38kt 4250 7276


Lfm



Severe Thunderstorm Watch
Statement as of 1:29 PM EDT on August 04, 2015

Severe Thunderstorm Watch 469 remains in effect until 800 PM EDT

MA
. Massachusetts counties included are

Berkshire Essex Franklin
Hampden Hampshire Middlesex
Norfolk Suffolk Worcester